createdAt,value
2019-04-03T00:01:42.275Z,9.85
2019-04-03T00:04:12.712Z,9.79
2019-04-03T00:06:43.163Z,9.68
2019-04-03T00:09:13.560Z,9.58
2019-04-03T00:11:43.962Z,9.49
2019-04-03T00:14:14.422Z,9.44
2019-04-03T00:16:45.581Z,9.42
2019-04-03T00:19:17.704Z,9.42
2019-04-03T00:21:48.742Z,9.39
2019-04-03T00:24:22.581Z,9.39
2019-04-03T00:26:52.947Z,9.44
2019-04-03T00:29:23.399Z,9.50
2019-04-03T00:31:53.979Z,9.57
2019-04-03T00:34:24.350Z,9.64
2019-04-03T00:36:54.956Z,9.72
2019-04-03T00:39:25.396Z,9.79
2019-04-03T00:41:55.924Z,9.86
2019-04-03T00:44:26.374Z,9.92
2019-04-03T00:46:56.551Z,9.97
2019-04-03T00:49:26.831Z,10.02
2019-04-03T00:51:58.037Z,10.06
2019-04-03T00:54:30.671Z,10.10
2019-04-03T00:57:00.541Z,10.14
2019-04-03T00:59:31.027Z,10.17
2019-04-03T01:02:01.191Z,10.18
2019-04-03T01:04:31.408Z,10.21
2019-04-03T01:07:01.561Z,10.23
2019-04-03T01:09:31.779Z,10.27
2019-04-03T01:12:02.194Z,10.29
2019-04-03T01:14:32.358Z,10.32
2019-04-03T01:17:04.392Z,10.32
2019-04-03T01:19:36.035Z,10.33
2019-04-03T01:22:08.050Z,10.33
2019-04-03T01:24:39.017Z,10.33
2019-04-03T01:27:11.188Z,10.32
2019-04-03T01:29:42.892Z,10.33
2019-04-03T01:32:15.148Z,10.35
2019-04-03T01:34:47.718Z,10.36
2019-04-03T01:37:19.167Z,10.37
2019-04-03T01:39:50.838Z,10.37
2019-04-03T01:42:22.457Z,10.38
2019-04-03T01:44:55.091Z,10.39
2019-04-03T01:47:27.457Z,10.38
2019-04-03T01:49:56.838Z,10.35
2019-04-03T01:52:31.101Z,10.30
2019-04-03T01:55:03.366Z,10.27
2019-04-03T01:57:32.772Z,10.27
2019-04-03T02:00:02.980Z,10.29
2019-04-03T02:02:33.235Z,10.32
2019-04-03T02:05:03.427Z,10.34
2019-04-03T02:07:33.491Z,10.31
2019-04-03T02:10:03.839Z,10.28
2019-04-03T02:12:33.980Z,10.22
2019-04-03T02:15:04.264Z,10.18
2019-04-03T02:17:34.423Z,10.14
2019-04-03T02:20:04.814Z,10.10
2019-04-03T02:22:34.867Z,10.07
2019-04-03T02:25:05.498Z,10.02
2019-04-03T02:27:35.920Z,9.99
2019-04-03T02:30:07.366Z,9.93
2019-04-03T02:32:37.482Z,9.91
2019-04-03T02:35:08.474Z,9.90
2019-04-03T02:37:38.942Z,9.86
2019-04-03T02:40:09.681Z,9.83
2019-04-03T02:42:41.562Z,9.77
2019-04-03T02:45:11.897Z,9.72
2019-04-03T02:47:42.132Z,9.69
2019-04-03T02:50:14.402Z,9.67
2019-04-03T02:52:44.283Z,9.65
2019-04-03T02:55:14.546Z,9.60
2019-04-03T02:57:48.745Z,9.57
2019-04-03T03:00:16.652Z,9.52
2019-04-03T03:02:47.284Z,9.48
2019-04-03T03:05:17.409Z,9.44
2019-04-03T03:07:47.853Z,9.41
2019-04-03T03:10:19.203Z,9.39
2019-04-03T03:12:50.084Z,9.38
2019-04-03T03:15:20.947Z,9.35
2019-04-03T03:17:54.450Z,9.33
2019-04-03T03:20:25.112Z,9.47
2019-04-03T03:22:57.505Z,9.41
2019-04-03T03:25:28.022Z,9.37
2019-04-03T03:27:58.503Z,9.32
2019-04-03T03:30:41.083Z,9.30
2019-04-03T03:33:24.554Z,9.26
2019-04-03T03:35:44.401Z,9.22
2019-04-03T03:38:11.726Z,9.20
2019-04-03T03:40:47.109Z,9.19
2019-04-03T03:43:15.564Z,9.18
2019-04-03T03:45:46.080Z,9.15
2019-04-03T03:48:16.490Z,9.14
2019-04-03T03:50:47.866Z,9.12
2019-04-03T03:53:18.342Z,9.12
2019-04-03T03:55:49.100Z,9.12
2019-04-03T03:58:20.528Z,9.12
2019-04-03T04:00:52.202Z,9.13
2019-04-03T04:03:23.018Z,9.12
2019-04-03T04:05:55.398Z,9.08
2019-04-03T04:08:25.549Z,9.00
2019-04-03T04:10:59.593Z,8.86
2019-04-03T04:13:30.183Z,8.76
2019-04-03T04:16:03.911Z,8.67
2019-04-03T04:18:33.112Z,8.59
2019-04-03T04:21:04.693Z,8.53
2019-04-03T04:23:35.150Z,8.47
2019-04-03T04:26:06.812Z,8.43
2019-04-03T04:28:39.506Z,8.39
2019-04-03T04:31:12.283Z,8.34
2019-04-03T04:33:41.794Z,8.30
2019-04-03T04:36:12.105Z,8.26
2019-04-03T04:38:42.462Z,8.23
2019-04-03T04:41:12.704Z,8.23
2019-04-03T04:43:43.049Z,8.22
2019-04-03T04:46:13.507Z,8.18
2019-04-03T04:48:52.071Z,8.14
2019-04-03T04:51:31.682Z,8.10
2019-04-03T04:54:01.820Z,8.04
2019-04-03T04:57:21.914Z,7.99
2019-04-03T05:00:01.943Z,7.92
2019-04-03T05:02:32.265Z,7.80
2019-04-03T05:05:04.075Z,7.76
2019-04-03T05:07:34.268Z,7.74
2019-04-03T05:10:05.865Z,7.71
2019-04-03T05:12:38.789Z,7.69
2019-04-03T05:15:09.825Z,7.66
2019-04-03T05:17:40.702Z,7.66
2019-04-03T05:20:11.237Z,7.64
2019-04-03T05:22:41.742Z,7.61
2019-04-03T05:25:12.295Z,7.57
2019-04-03T05:27:42.736Z,7.54
2019-04-03T05:30:15.076Z,7.50
2019-04-03T05:32:45.515Z,7.48
2019-04-03T05:35:15.963Z,7.42
2019-04-03T05:37:46.353Z,7.43
2019-04-03T05:40:16.851Z,7.41
2019-04-03T05:42:47.509Z,7.44
2019-04-03T05:45:21.562Z,7.48
2019-04-03T05:47:52.182Z,7.51
2019-04-03T05:50:22.675Z,7.56
2019-04-03T05:52:53.050Z,7.58
2019-04-03T05:55:23.276Z,7.64
2019-04-03T05:57:53.504Z,7.69
2019-04-03T06:00:24.018Z,7.72
2019-04-03T06:02:57.046Z,7.77
2019-04-03T06:05:25.966Z,7.82
2019-04-03T06:07:56.267Z,7.88
2019-04-03T06:10:27.902Z,7.96
2019-04-03T06:12:58.392Z,8.03
2019-04-03T06:15:28.525Z,8.08
2019-04-03T06:17:58.683Z,8.13
2019-04-03T06:20:28.884Z,8.17
2019-04-03T06:22:59.032Z,8.20
2019-04-03T06:25:30.625Z,8.22
2019-04-03T06:28:01.018Z,8.27
2019-04-03T06:30:31.553Z,8.34
2019-04-03T06:33:02.241Z,8.39
2019-04-03T06:35:34.772Z,8.44
2019-04-03T06:38:04.517Z,8.50
2019-04-03T06:40:35.531Z,8.54
2019-04-03T06:43:06.671Z,8.58
2019-04-03T06:45:36.746Z,8.61
2019-04-03T06:48:06.881Z,8.63
2019-04-03T06:50:37.478Z,8.67
2019-04-03T06:53:07.734Z,8.72
2019-04-03T06:55:38.002Z,8.80
2019-04-03T06:58:10.956Z,8.93
2019-04-03T07:00:40.148Z,9.11
2019-04-03T07:03:10.304Z,9.28
2019-04-03T07:05:41.678Z,9.47
2019-04-03T07:08:12.896Z,9.59
2019-04-03T07:10:54.593Z,9.66
2019-04-03T07:13:15.479Z,9.73
2019-04-03T07:15:48.862Z,9.77
2019-04-03T07:18:19.100Z,9.83
2019-04-03T07:20:51.280Z,9.88
2019-04-03T07:23:26.105Z,9.93
2019-04-03T07:26:06.654Z,9.91
2019-04-03T07:28:37.359Z,9.89
2019-04-03T07:31:12.814Z,9.83
2019-04-03T07:33:43.326Z,9.81
2019-04-03T07:36:15.963Z,9.81
2019-04-03T07:38:46.226Z,9.82
2019-04-03T07:41:22.082Z,9.78
2019-04-03T07:43:51.162Z,9.76
2019-04-03T07:46:21.218Z,9.80
2019-04-03T07:48:53.899Z,9.88
2019-04-03T07:51:24.231Z,9.99
2019-04-03T07:53:54.432Z,10.05
2019-04-03T07:56:25.876Z,10.13
2019-04-03T07:58:56.719Z,10.28
2019-04-03T08:01:27.006Z,10.41
2019-04-03T08:03:57.413Z,10.62
2019-04-03T08:06:27.909Z,10.75
2019-04-03T08:09:07.223Z,10.83
2019-04-03T08:14:13.318Z,11.24
2019-04-03T08:16:43.927Z,11.32
2019-04-03T08:19:14.160Z,11.53
2019-04-03T08:21:46.532Z,11.71
2019-04-03T08:24:21.277Z,11.76
2019-04-03T08:26:52.226Z,11.80
2019-04-03T08:29:22.867Z,11.83
2019-04-03T08:31:53.055Z,11.89
2019-04-03T08:34:23.398Z,12.18
2019-04-03T08:36:53.644Z,12.06
2019-04-03T08:39:23.942Z,11.98
2019-04-03T08:41:56.026Z,12.00
2019-04-03T08:44:26.287Z,12.15
2019-04-03T08:46:56.574Z,12.33
2019-04-03T08:49:26.779Z,12.53
2019-04-03T08:51:58.530Z,12.72
2019-04-03T08:54:28.838Z,12.91
2019-04-03T08:56:59.066Z,12.98
2019-04-03T08:59:29.662Z,13.30
2019-04-03T09:01:59.895Z,13.18
2019-04-03T09:04:30.355Z,13.19
2019-04-03T09:07:00.830Z,13.37
2019-04-03T09:09:31.052Z,13.54
2019-04-03T09:12:01.472Z,13.72
2019-04-03T09:14:31.835Z,13.85
2019-04-03T09:17:09.243Z,13.93
2019-04-03T09:19:41.770Z,13.93
2019-04-03T09:22:11.429Z,13.92
2019-04-03T09:24:41.866Z,13.92
2019-04-03T09:27:12.050Z,13.89
2019-04-03T09:29:42.929Z,13.95
2019-04-03T09:32:14.744Z,13.90
2019-04-03T09:34:45.746Z,13.88
2019-04-03T09:37:18.166Z,13.82
2019-04-03T09:39:48.002Z,13.90
2019-04-03T09:42:21.243Z,14.00
2019-04-03T09:44:51.972Z,14.11
2019-04-03T09:47:22.178Z,14.18
2019-04-03T09:49:52.553Z,14.38
2019-04-03T09:52:23.660Z,14.52
2019-04-03T09:54:54.396Z,14.58
2019-04-03T09:57:24.565Z,14.61
2019-04-03T09:59:54.812Z,14.68
2019-04-03T10:02:25.057Z,14.78
2019-04-03T10:04:57.270Z,14.86
2019-04-03T10:07:27.138Z,14.76
2019-04-03T10:09:57.302Z,14.71
2019-04-03T10:12:27.476Z,14.77
2019-04-03T10:15:00.226Z,14.82
2019-04-03T10:17:31.309Z,14.90
2019-04-03T10:20:01.625Z,14.99
2019-04-03T10:22:32.640Z,15.10
2019-04-03T10:25:05.477Z,15.18
2019-04-03T10:27:36.930Z,15.26
2019-04-03T10:30:13.001Z,15.37
2019-04-03T10:32:43.515Z,15.46
2019-04-03T10:35:14.266Z,15.54
2019-04-03T10:37:46.297Z,15.58
2019-04-03T10:40:18.231Z,15.55
2019-04-03T10:42:48.506Z,15.43
2019-04-03T10:45:19.107Z,15.38
2019-04-03T10:47:49.271Z,15.41
2019-04-03T10:50:19.693Z,15.46
2019-04-03T10:52:52.135Z,15.51
2019-04-03T10:55:22.664Z,15.61
2019-04-03T10:57:52.945Z,15.70
2019-04-03T11:00:24.884Z,15.80
2019-04-03T11:02:55.308Z,15.88
2019-04-03T11:05:26.078Z,15.96
2019-04-03T11:07:56.495Z,15.93
2019-04-03T11:10:26.622Z,15.87
2019-04-03T11:12:58.976Z,15.83
2019-04-03T11:15:29.194Z,15.90
2019-04-03T11:17:59.534Z,16.03
2019-04-03T11:20:29.687Z,16.30
2019-04-03T11:23:06.338Z,16.57
2019-04-03T11:25:31.904Z,16.65
2019-04-03T11:28:06.311Z,16.67
2019-04-03T11:30:36.790Z,16.70
2019-04-03T11:33:07.088Z,16.61
2019-04-03T11:35:37.372Z,16.55
2019-04-03T11:38:14.132Z,16.59
2019-04-03T11:40:42.848Z,16.72
2019-04-03T11:43:13.145Z,16.64
2019-04-03T11:45:43.354Z,16.45
2019-04-03T11:48:14.900Z,16.28
2019-04-03T11:50:45.585Z,16.22
2019-04-03T11:53:15.897Z,16.17
2019-04-03T11:55:46.090Z,16.21
2019-04-03T11:58:19.812Z,16.36
2019-04-03T12:00:50.294Z,16.57
2019-04-03T12:03:20.851Z,16.67
2019-04-03T12:05:51.438Z,16.65
2019-04-03T12:08:21.865Z,16.67
2019-04-03T12:10:52.157Z,16.58
2019-04-03T12:13:22.308Z,16.52
2019-04-03T12:15:53.645Z,16.32
2019-04-03T12:18:25.631Z,16.13
2019-04-03T12:20:55.866Z,15.98
2019-04-03T12:23:27.504Z,15.95
2019-04-03T12:25:58.116Z,15.96
2019-04-03T12:28:28.406Z,15.97
2019-04-03T12:30:58.766Z,16.05
2019-04-03T12:33:33.442Z,16.13
2019-04-03T12:36:06.880Z,16.15
2019-04-03T12:38:37.624Z,16.26
2019-04-03T12:41:09.855Z,16.44
2019-04-03T12:43:40.788Z,16.47
2019-04-03T12:46:10.974Z,16.42
2019-04-03T12:48:41.143Z,16.39
2019-04-03T12:51:11.280Z,16.43
2019-04-03T12:53:44.714Z,16.52
2019-04-03T12:56:23.936Z,16.95
2019-04-03T12:58:53.425Z,16.86
2019-04-03T13:01:23.797Z,16.77
2019-04-03T13:03:56.054Z,16.73
2019-04-03T13:06:27.904Z,16.73
2019-04-03T13:09:12.121Z,16.71
2019-04-03T13:11:42.368Z,16.79
2019-04-03T13:14:24.237Z,16.67
2019-04-03T13:16:47.633Z,16.55
2019-04-03T13:19:18.894Z,16.44
2019-04-03T13:21:49.269Z,16.44
2019-04-03T13:24:20.604Z,16.38
2019-04-03T13:26:53.940Z,16.17
2019-04-03T13:29:24.310Z,15.86
2019-04-03T13:31:54.954Z,15.52
2019-04-03T13:34:32.539Z,15.21
2019-04-03T13:37:03.145Z,15.02
2019-04-03T13:39:34.257Z,14.94
2019-04-03T13:42:07.881Z,14.90
2019-04-03T13:44:38.059Z,14.77
2019-04-03T13:47:09.249Z,14.74
2019-04-03T13:49:40.051Z,14.83
2019-04-03T13:52:10.745Z,14.82
2019-04-03T13:54:41.136Z,14.75
2019-04-03T13:57:11.872Z,14.64
2019-04-03T13:59:43.985Z,14.54
2019-04-03T14:02:15.097Z,14.50
2019-04-03T14:04:48.359Z,14.49
2019-04-03T14:07:17.701Z,14.51
2019-04-03T14:09:52.628Z,14.53
2019-04-03T14:12:20.146Z,14.52
2019-04-03T14:14:50.524Z,14.56
2019-04-03T14:17:21.193Z,14.67
2019-04-03T14:19:52.734Z,14.69
2019-04-03T14:22:23.797Z,14.68
2019-04-03T14:24:54.126Z,14.70
2019-04-03T14:27:28.984Z,14.66
2019-04-03T14:29:58.731Z,14.64
2019-04-03T14:32:28.650Z,14.62
2019-04-03T14:35:06.587Z,14.54
2019-04-03T14:37:31.049Z,14.46
2019-04-03T14:40:01.257Z,14.36
2019-04-03T14:42:31.860Z,14.30
2019-04-03T14:45:04.044Z,14.36
2019-04-03T14:47:34.254Z,14.37
2019-04-03T14:50:08.123Z,14.26
2019-04-03T14:52:38.545Z,14.18
2019-04-03T14:55:18.572Z,14.17
2019-04-03T14:57:44.573Z,14.18
2019-04-03T15:00:27.412Z,14.17
2019-04-03T15:02:57.520Z,14.13
2019-04-03T15:05:27.727Z,14.22
2019-04-03T15:08:00.845Z,14.39
2019-04-03T15:13:13.672Z,14.73
2019-04-03T15:15:43.762Z,14.68
2019-04-03T15:18:14.345Z,14.61
2019-04-03T15:20:44.887Z,14.53
2019-04-03T15:23:15.329Z,14.50
2019-04-03T15:25:51.717Z,14.48
2019-04-03T15:28:27.963Z,14.44
2019-04-03T15:31:00.906Z,14.43
2019-04-03T15:33:34.072Z,14.41
2019-04-03T15:36:04.799Z,14.37
2019-04-03T15:38:35.293Z,14.35
2019-04-03T15:41:05.988Z,14.39
2019-04-03T15:43:37.084Z,14.40
2019-04-03T15:46:07.580Z,14.33
2019-04-03T15:48:40.923Z,14.29
2019-04-03T15:51:10.362Z,14.24
2019-04-03T15:53:40.878Z,14.17
2019-04-03T15:56:12.972Z,14.11
2019-04-03T15:58:43.424Z,14.06
2019-04-03T16:01:13.809Z,14.05
2019-04-03T16:03:44.299Z,14.06
2019-04-03T16:06:14.839Z,14.03
2019-04-03T16:08:47.390Z,13.94
2019-04-03T16:11:17.188Z,13.94
2019-04-03T16:13:48.124Z,13.96
2019-04-03T16:16:18.698Z,14.05
2019-04-03T16:18:48.967Z,14.17
2019-04-03T16:21:19.920Z,14.17
2019-04-03T16:23:51.508Z,14.13
2019-04-03T16:26:23.791Z,14.10
2019-04-03T16:28:56.260Z,14.08
2019-04-03T16:31:26.210Z,13.97
2019-04-03T16:36:33.570Z,13.98
2019-04-03T16:39:06.047Z,13.89
2019-04-03T16:41:38.230Z,13.86
2019-04-03T16:44:08.685Z,13.81
2019-04-03T16:46:39.879Z,13.66
2019-04-03T16:49:11.163Z,13.58
2019-04-03T16:51:41.345Z,13.48
2019-04-03T16:54:12.686Z,13.41
2019-04-03T16:56:42.970Z,13.31
2019-04-03T16:59:13.155Z,13.21
2019-04-03T17:01:45.620Z,13.12
2019-04-03T17:04:25.007Z,12.99
2019-04-03T17:06:49.540Z,12.87
2019-04-03T17:09:19.930Z,12.79
2019-04-03T17:11:50.187Z,12.73
2019-04-03T17:14:23.147Z,12.69
2019-04-03T17:16:52.739Z,12.63
2019-04-03T17:19:25.880Z,12.56
2019-04-03T17:21:56.073Z,12.49
2019-04-03T17:24:26.249Z,12.44
2019-04-03T17:26:58.960Z,12.40
2019-04-03T17:29:28.345Z,12.35
2019-04-03T17:31:58.894Z,12.27
2019-04-03T17:34:43.041Z,12.20
2019-04-03T17:37:13.718Z,12.14
2019-04-03T17:39:43.919Z,12.08
2019-04-03T17:42:14.140Z,12.00
2019-04-03T17:44:44.752Z,11.95
2019-04-03T17:47:15.569Z,11.87
2019-04-03T17:49:45.877Z,11.81
2019-04-03T17:52:16.145Z,11.75
2019-04-03T17:54:46.609Z,11.70
2019-04-03T17:57:17.584Z,11.65
2019-04-03T17:59:49.450Z,11.62
2019-04-03T18:02:20.192Z,11.57
2019-04-03T18:04:51.197Z,11.58
2019-04-03T18:07:21.788Z,11.55
2019-04-03T18:09:52.549Z,11.53
2019-04-03T18:12:23.067Z,11.47
2019-04-03T18:17:38.528Z,11.52
2019-04-03T18:20:12.533Z,11.41
2019-04-03T18:22:42.932Z,11.36
2019-04-03T18:25:14.410Z,11.31
2019-04-03T18:27:44.998Z,11.26
2019-04-03T18:30:16.150Z,11.24
2019-04-03T18:32:46.699Z,11.20
2019-04-03T18:35:17.404Z,11.20
2019-04-03T18:37:49.810Z,11.19
2019-04-03T18:40:20.420Z,11.18
2019-04-03T18:42:51.069Z,11.17
2019-04-03T18:45:25.418Z,11.17
2019-04-03T18:47:53.876Z,11.15
2019-04-03T18:52:53.337Z,11.16
2019-04-03T18:55:23.873Z,11.15
2019-04-03T18:58:17.172Z,11.13
2019-04-03T19:00:55.704Z,11.11
2019-04-03T19:03:26.125Z,11.08
2019-04-03T19:05:56.529Z,11.08
2019-04-03T19:11:09.277Z,11.15
2019-04-03T19:13:38.789Z,11.13
2019-04-03T19:16:09.363Z,11.09
2019-04-03T19:18:39.845Z,11.11
2019-04-03T19:21:23.776Z,11.11
2019-04-03T19:23:49.784Z,11.12
2019-04-03T19:26:16.755Z,11.09
2019-04-03T19:28:47.333Z,11.09
2019-04-03T19:31:17.886Z,11.06
2019-04-03T19:33:50.131Z,11.04
2019-04-03T19:36:21.710Z,10.99
2019-04-03T19:38:53.615Z,10.97
2019-04-03T19:41:24.235Z,10.95
2019-04-03T19:43:54.736Z,10.92
2019-04-03T19:46:25.261Z,10.91
2019-04-03T19:48:56.772Z,10.91
2019-04-03T19:51:27.955Z,10.90
2019-04-03T19:53:59.797Z,10.90
2019-04-03T19:56:30.532Z,10.89
2019-04-03T19:59:00.894Z,10.87
2019-04-03T20:01:31.417Z,11.08
2019-04-03T20:04:01.845Z,10.97
2019-04-03T20:06:32.479Z,10.92
2019-04-03T20:09:04.798Z,10.88
2019-04-03T20:11:35.908Z,10.85
2019-04-03T20:14:07.559Z,10.82
2019-04-03T20:16:37.875Z,10.80
2019-04-03T20:19:08.394Z,10.77
2019-04-03T20:21:39.043Z,10.75
2019-04-03T20:24:12.534Z,10.74
2019-04-03T20:26:41.727Z,10.97
2019-04-03T20:29:12.181Z,10.87
2019-04-03T20:31:42.627Z,10.81
2019-04-03T20:34:17.910Z,10.76
2019-04-03T20:36:51.012Z,10.72
2019-04-03T20:39:20.817Z,10.68
2019-04-03T20:41:52.924Z,10.64
2019-04-03T20:44:23.721Z,10.60
2019-04-03T20:46:56.027Z,10.55
2019-04-03T20:49:28.070Z,10.52
2019-04-03T20:51:58.662Z,10.46
2019-04-03T20:54:29.419Z,10.40
2019-04-03T20:57:02.307Z,10.35
2019-04-03T20:59:32.221Z,10.32
2019-04-03T21:02:02.927Z,10.27
2019-04-03T21:04:33.453Z,10.25
2019-04-03T21:07:04.082Z,10.23
2019-04-03T21:09:34.721Z,10.22
2019-04-03T21:12:05.652Z,10.04
2019-04-03T21:14:36.221Z,10.11
2019-04-03T21:17:06.771Z,10.07
2019-04-03T21:19:37.445Z,10.05
2019-04-03T21:22:08.011Z,10.02
2019-04-03T21:24:38.792Z,10.01
2019-04-03T21:27:09.446Z,10.00
2019-04-03T21:29:40.054Z,10.00
2019-04-03T21:32:10.777Z,10.01
2019-04-03T21:34:42.824Z,10.00
2019-04-03T21:37:14.117Z,9.98
2019-04-03T21:39:44.904Z,9.99
2019-04-03T21:42:15.397Z,9.98
2019-04-03T21:44:45.914Z,9.97
2019-04-03T21:47:16.365Z,9.96
2019-04-03T21:49:47.686Z,9.93
2019-04-03T21:52:18.515Z,9.94
2019-04-03T21:54:49.079Z,9.93
2019-04-03T21:57:19.666Z,9.91
2019-04-03T21:59:51.961Z,9.90
2019-04-03T22:02:22.489Z,9.88
2019-04-03T22:04:53.871Z,9.85
2019-04-03T22:07:24.877Z,9.83
2019-04-03T22:09:55.415Z,9.79
2019-04-03T22:12:25.913Z,9.76
2019-04-03T22:14:56.471Z,9.74
2019-04-03T22:17:27.318Z,9.72
2019-04-03T22:19:58.584Z,9.68
2019-04-03T22:22:29.677Z,9.63
2019-04-03T22:25:00.741Z,9.60
2019-04-03T22:27:31.273Z,9.56
2019-04-03T22:30:01.426Z,9.53
2019-04-03T22:32:31.516Z,9.49
2019-04-03T22:35:01.692Z,9.45
2019-04-03T22:37:33.234Z,9.43
2019-04-03T22:40:04.085Z,9.38
2019-04-03T22:42:34.214Z,9.36
2019-04-03T22:45:04.646Z,9.33
2019-04-03T22:47:35.085Z,9.30
2019-04-03T22:50:05.809Z,9.28
2019-04-03T22:52:36.071Z,9.24
2019-04-03T22:55:06.541Z,9.20
2019-04-03T22:57:36.743Z,9.15
2019-04-03T23:00:07.358Z,9.10
2019-04-03T23:02:37.566Z,9.05
2019-04-03T23:05:07.812Z,9.02
2019-04-03T23:07:37.941Z,8.97
2019-04-03T23:10:08.692Z,8.95
2019-04-03T23:12:38.865Z,8.92
2019-04-03T23:15:09.631Z,8.89
2019-04-03T23:17:40.007Z,8.89
2019-04-03T23:20:10.183Z,8.86
2019-04-03T23:22:40.249Z,8.84
2019-04-03T23:25:10.466Z,8.84
2019-04-03T23:27:40.645Z,8.83
2019-04-03T23:30:11.463Z,8.81
2019-04-03T23:32:41.690Z,8.79
2019-04-03T23:35:11.919Z,8.77
2019-04-03T23:37:42.139Z,8.77
2019-04-03T23:40:12.427Z,8.77
2019-04-03T23:42:42.590Z,8.78
2019-04-03T23:45:13.411Z,8.79
2019-04-03T23:47:45.100Z,8.79
2019-04-03T23:50:15.493Z,8.78
2019-04-03T23:52:46.374Z,8.78
2019-04-03T23:55:16.628Z,8.80
2019-04-03T23:57:46.779Z,8.81
